Time;durP1;ratioP1;P1;durP2;ratioP2;P2;SDS_P1;SDS_P2;PMS_P1;PMS_P2;Temp;Humidity;BMP_temperature;BMP_pressure;BME280_temperature;BME280_humidity;BME280_pressure;Samples;Min_cycle;Max_cycle;Signal;HPM_P1;HPM_P2
2022/05/18 00:02:24;;;;;;;20.52;14.85;;;24.50;82.80;;;;;;4933650;29;20051;-64
2022/05/18 00:04:49;;;;;;;20.10;14.50;;;24.90;86.40;;;;;;4904455;29;20056;-64
2022/05/18 00:07:15;;;;;;;21.10;14.45;;;24.60;82.50;;;;;;4905561;29;20036;-64
2022/05/18 00:09:41;;;;;;;18.20;14.35;;;24.40;82.50;;;;;;4889919;29;20051;-65
2022/05/18 00:12:07;;;;;;;21.80;14.45;;;24.60;86.00;;;;;;4916138;29;20051;-64
2022/05/18 00:14:34;;;;;;;17.38;14.00;;;24.40;82.20;;;;;;4920249;29;20043;-64
2022/05/18 00:17:03;;;;;;;23.23;14.70;;;24.40;82.60;;;;;;4922172;29;20126;-64
2022/05/18 00:19:30;;;;;;;19.60;14.48;;;24.40;81.60;;;;;;4907890;29;20128;-66
2022/05/18 00:21:56;;;;;;;18.88;14.85;;;24.40;82.90;;;;;;4888936;29;20051;-66
2022/05/18 00:24:21;;;;;;;18.75;15.18;;;24.30;82.60;;;;;;4891651;29;20043;-67
2022/05/18 00:26:47;;;;;;;19.50;15.45;;;24.60;82.70;;;;;;4934134;29;20055;-67
2022/05/18 00:29:13;;;;;;;18.63;14.35;;;24.60;82.80;;;;;;4929417;29;20131;-67
2022/05/18 00:31:52;;;;;;;20.58;15.48;;;24.40;84.40;;;;;;5141024;27;20334;-65
2022/05/18 00:34:17;;;;;;;21.65;15.32;;;24.40;82.60;;;;;;5067606;28;20413;-65
2022/05/18 00:36:43;;;;;;;20.55;15.30;;;24.20;82.50;;;;;;5123289;28;20043;-65
2022/05/18 00:39:09;;;;;;;18.20;14.88;;;24.20;82.60;;;;;;5078329;28;20551;-65
2022/05/18 00:41:35;;;;;;;18.90;15.13;;;24.30;82.70;;;;;;5122519;28;20078;-66
2022/05/18 00:44:00;;;;;;;18.58;15.60;;;24.50;82.80;;;;;;5130058;27;20123;-65
2022/05/18 00:46:26;;;;;;;18.33;15.23;;;24.30;82.60;;;;;;5122132;27;20035;-65
2022/05/18 00:48:53;;;;;;;21.10;15.65;;;24.30;86.10;;;;;;5123373;27;20070;-65
2022/05/18 00:51:25;;;;;;;18.95;14.60;;;24.20;82.90;;;;;;5114194;27;20044;-64
2022/05/18 00:53:55;;;;;;;;;;;24.50;81.60;;;;;;5094279;28;20052;-65
2022/05/18 00:56:29;;;;;;;20.02;14.88;;;24.50;82.00;;;;;;5111207;28;20010;-65
2022/05/18 00:58:58;;;;;;;20.15;15.30;;;24.40;86.60;;;;;;5074464;27;20085;-65
2022/05/18 01:01:24;;;;;;;19.70;14.82;;;24.40;83.00;;;;;;5120479;28;20058;-65
2022/05/18 01:03:51;;;;;;;20.08;15.15;;;24.20;82.60;;;;;;5119857;28;20104;-65
2022/05/18 01:06:53;;;;;;;20.73;15.50;;;24.40;83.70;;;;;;5076454;28;20084;-65
2022/05/18 01:09:25;;;;;;;21.17;16.45;;;24.10;81.90;;;;;;5110906;28;20508;-65
2022/05/18 01:11:51;;;;;;;18.88;14.85;;;24.20;85.60;;;;;;5071473;27;20091;-65
2022/05/18 01:14:32;;;;;;;20.10;16.35;;;24.20;82.70;;;;;;5119022;28;20144;-65
2022/05/18 01:16:58;;;;;;;22.80;15.70;;;24.20;81.70;;;;;;5078048;28;20052;-65
2022/05/18 01:19:45;;;;;;;21.80;14.70;;;24.30;82.70;;;;;;5108995;28;20043;-65
2022/05/18 01:22:15;;;;;;;20.02;16.15;;;24.10;81.70;;;;;;5098865;28;20099;-67
2022/05/18 01:24:53;;;;;;;19.90;15.55;;;24.20;81.40;;;;;;5109846;28;20047;-67
2022/05/18 01:27:18;;;;;;;20.85;15.70;;;24.20;83.50;;;;;;5095349;28;20051;-67
2022/05/18 01:29:44;;;;;;;18.25;14.65;;;24.10;82.80;;;;;;5095248;28;20134;-67
2022/05/18 01:32:13;;;;;;;18.83;15.13;;;24.20;82.60;;;;;;5077317;28;20051;-67
2022/05/18 01:34:42;;;;;;;21.83;15.50;;;24.30;83.20;;;;;;5107663;28;20089;-67
2022/05/18 01:37:11;;;;;;;19.80;15.25;;;24.10;82.80;;;;;;5125445;27;20392;-66
2022/05/18 01:39:59;;;;;;;20.92;16.17;;;24.20;83.20;;;;;;5077935;28;20550;-67
2022/05/18 01:42:27;;;;;;;19.55;15.25;;;24.20;83.10;;;;;;5094004;28;20047;-67
2022/05/18 01:44:53;;;;;;;21.63;15.82;;;24.10;83.00;;;;;;5097693;28;20048;-68
2022/05/18 01:47:19;;;;;;;20.45;15.35;;;24.30;82.90;;;;;;5080129;28;20499;-67
2022/05/18 01:49:45;;;;;;;20.00;15.70;;;24.10;83.10;;;;;;5084664;28;20075;-67
2022/05/18 01:52:11;;;;;;;18.00;14.75;;;24.40;83.10;;;;;;5115188;28;20050;-67
2022/05/18 01:54:42;;;;;;;22.08;15.88;;;24.20;82.90;;;;;;5131043;27;20027;-67
2022/05/18 01:57:08;;;;;;;20.38;14.65;;;23.90;83.20;;;;;;5099000;28;20447;-67
2022/05/18 01:59:35;;;;;;;21.50;15.88;;;24.10;82.90;;;;;;5105859;28;20036;-67
2022/05/18 02:02:01;;;;;;;20.73;14.75;;;24.10;83.10;;;;;;5078418;28;20052;-67
2022/05/18 02:04:27;;;;;;;20.30;14.70;;;24.20;82.90;;;;;;5080747;28;20622;-67
2022/05/18 02:06:53;;;;;;;18.55;14.77;;;24.00;82.80;;;;;;5101386;28;20106;-67
2022/05/18 02:09:20;;;;;;;18.92;14.25;;;24.10;83.00;;;;;;5098549;28;20036;-65
2022/05/18 02:11:46;;;;;;;18.52;14.38;;;24.10;82.90;;;;;;5100542;28;20078;-66
2022/05/18 02:14:12;;;;;;;18.80;14.40;;;24.20;82.90;;;;;;5096252;28;20063;-65
2022/05/18 02:16:38;;;;;;;18.30;13.98;;;24.00;82.70;;;;;;5097497;28;20090;-65
2022/05/18 02:19:04;;;;;;;19.80;14.23;;;24.30;83.00;;;;;;5111731;28;20465;-65
2022/05/18 02:21:29;;;;;;;15.88;13.75;;;24.00;83.40;;;;;;5099341;28;20047;-65
2022/05/18 02:23:55;;;;;;;17.73;14.27;;;24.00;82.80;;;;;;5093755;28;20040;-65
2022/05/18 02:26:21;;;;;;;16.70;13.88;;;24.20;82.70;;;;;;5074188;28;20478;-65
2022/05/18 02:28:47;;;;;;;16.98;13.23;;;24.10;82.90;;;;;;5102839;28;20189;-65
2022/05/18 02:31:13;;;;;;;17.75;14.07;;;23.90;82.60;;;;;;5089790;28;20056;-66
2022/05/18 02:33:39;;;;;;;16.92;12.70;;;24.00;82.80;;;;;;5111662;27;20048;-66
2022/05/18 02:36:06;;;;;;;16.90;13.38;;;24.00;82.70;;;;;;5116362;28;20138;-65
2022/05/18 02:38:32;;;;;;;15.25;12.82;;;23.70;82.40;;;;;;5091881;28;20131;-65
2022/05/18 02:40:58;;;;;;;17.02;13.73;;;24.00;82.80;;;;;;5102820;28;20107;-65
2022/05/18 02:43:24;;;;;;;19.80;12.52;;;24.00;82.80;;;;;;5075910;28;20040;-65
2022/05/18 02:46:21;;;;;;;17.00;13.18;;;23.90;83.00;;;;;;5096803;28;20086;-65
2022/05/18 02:48:47;;;;;;;17.27;13.00;;;23.90;81.70;;;;;;5126665;27;20055;-64
2022/05/18 02:51:14;;;;;;;15.35;12.70;;;24.00;82.70;;;;;;5131250;27;20101;-64
2022/05/18 02:53:39;;;;;;;15.82;12.30;;;23.80;82.80;;;;;;5079458;28;20119;-65
2022/05/18 02:56:09;;;;;;;15.57;12.07;;;24.00;82.50;;;;;;5096772;28;20130;-67
2022/05/18 02:58:43;;;;;;;16.40;12.50;;;24.00;83.00;;;;;;5081960;28;20047;-67
2022/05/18 03:01:13;;;;;;;15.75;12.57;;;23.70;83.10;;;;;;5089441;28;20044;-67
2022/05/18 03:03:39;;;;;;;17.02;12.95;;;23.90;81.40;;;;;;5079186;28;20040;-67
2022/05/18 03:06:06;;;;;;;15.23;12.05;;;24.00;82.70;;;;;;5076661;28;20150;-68
2022/05/18 03:08:33;;;;;;;14.93;11.77;;;23.80;86.20;;;;;;5094586;28;20416;-67
2022/05/18 03:10:58;;;;;;;13.80;11.57;;;23.70;85.50;;;;;;5096183;28;20044;-67
2022/05/18 03:13:24;;;;;;;14.55;11.35;;;23.80;82.60;;;;;;5061392;28;20561;-67
2022/05/18 03:15:50;;;;;;;15.77;12.13;;;23.80;82.40;;;;;;5062787;28;20588;-67
2022/05/18 03:18:15;;;;;;;17.50;12.15;;;23.70;82.60;;;;;;5076221;28;20052;-67
2022/05/18 03:23:35;;;;;;;15.25;11.93;;;23.80;81.60;;;;;;5110453;27;20035;-67
2022/05/18 03:26:01;;;;;;;14.48;11.77;;;23.90;81.80;;;;;;5094251;28;20051;-67
2022/05/18 03:28:27;;;;;;;15.40;11.60;;;24.00;82.90;;;;;;5094655;28;20084;-67
2022/05/18 03:30:53;;;;;;;14.65;11.45;;;23.90;82.50;;;;;;5086385;28;20059;-67
2022/05/18 03:33:19;;;;;;;16.13;11.80;;;23.90;82.50;;;;;;5114304;28;20403;-67
2022/05/18 03:35:47;;;;;;;20.30;12.00;;;23.80;82.50;;;;;;5114090;28;20092;-66
2022/05/18 03:38:14;;;;;;;16.33;11.15;;;23.90;82.70;;;;;;5114847;28;20040;-67
2022/05/18 03:40:40;;;;;;;14.45;11.32;;;23.80;82.70;;;;;;5093585;28;20043;-67
2022/05/18 03:43:05;;;;;;;15.13;11.23;;;23.70;82.70;;;;;;5096373;28;20047;-67
2022/05/18 03:45:33;;;;;;;13.73;10.73;;;23.70;82.40;;;;;;5111882;27;20084;-65
2022/05/18 03:47:59;;;;;;;16.17;11.27;;;23.50;82.40;;;;;;5088751;28;20145;-64
2022/05/18 03:50:28;;;;;;;13.55;10.80;;;23.90;82.70;;;;;;5094093;28;20443;-65
2022/05/18 03:52:57;;;;;;;14.65;11.07;;;23.80;82.60;;;;;;5109144;28;20389;-65
2022/05/18 03:55:23;;;;;;;14.15;10.65;;;23.70;82.40;;;;;;5126865;27;20161;-67
2022/05/18 03:57:49;;;;;;;13.10;10.23;;;23.70;82.40;;;;;;5127260;27;20066;-67
2022/05/18 04:00:15;;;;;;;14.48;10.10;;;23.70;82.50;;;;;;5077887;28;20481;-67
2022/05/18 04:02:42;;;;;;;13.73;9.98;;;23.80;82.00;;;;;;5076530;28;20080;-67
2022/05/18 04:05:09;;;;;;;16.30;10.38;;;23.90;82.50;;;;;;5083181;28;20055;-66
2022/05/18 04:07:35;;;;;;;13.10;9.93;;;23.80;82.50;;;;;;5078367;28;20044;-67
2022/05/18 04:10:01;;;;;;;11.20;9.05;;;23.70;82.10;;;;;;5097265;28;20123;-67
2022/05/18 04:12:27;;;;;;;13.20;9.57;;;23.70;81.90;;;;;;5117880;27;20615;-67
2022/05/18 04:14:54;;;;;;;12.45;9.63;;;23.90;82.20;;;;;;5075735;28;20043;-68
2022/05/18 04:17:23;;;;;;;11.57;9.00;;;23.90;82.40;;;;;;5116512;27;20051;-67
2022/05/18 04:19:49;;;;;;;10.85;9.23;;;23.70;82.20;;;;;;5114082;28;20032;-67
2022/05/18 04:22:15;;;;;;;12.30;9.05;;;23.70;81.90;;;;;;5085790;28;20405;-67
2022/05/18 04:24:41;;;;;;;12.90;8.55;;;23.80;82.00;;;;;;5087616;28;20055;-65
2022/05/18 04:27:07;;;;;;;13.20;8.40;;;23.80;85.00;;;;;;5085057;28;20083;-65
2022/05/18 04:29:33;;;;;;;11.70;8.90;;;24.00;82.00;;;;;;5095845;28;20073;-65
2022/05/18 04:31:59;;;;;;;12.48;7.75;;;24.00;81.90;;;;;;5094594;28;20051;-65
2022/05/18 04:34:25;;;;;;;10.73;8.05;;;24.10;82.00;;;;;;5093796;28;20043;-65
2022/05/18 04:36:51;;;;;;;11.32;8.38;;;23.90;81.80;;;;;;5077591;28;20060;-64
2022/05/18 04:39:17;;;;;;;11.30;8.65;;;23.90;81.90;;;;;;5105692;28;20052;-67
2022/05/18 04:41:43;;;;;;;10.70;7.53;;;23.90;81.60;;;;;;5094996;28;20039;-67
2022/05/18 04:44:09;;;;;;;11.48;7.97;;;24.00;81.90;;;;;;5113632;28;20105;-67
2022/05/18 04:46:34;;;;;;;8.38;6.90;;;24.00;81.60;;;;;;5099110;28;20044;-67
2022/05/18 04:49:00;;;;;;;11.00;7.60;;;24.20;81.80;;;;;;5100339;28;20373;-67
2022/05/18 04:51:26;;;;;;;10.07;6.97;;;24.20;81.70;;;;;;5095386;28;20054;-67
2022/05/18 04:53:52;;;;;;;12.18;6.95;;;24.40;81.90;;;;;;5112812;28;20036;-67
2022/05/18 04:56:18;;;;;;;9.35;6.20;;;23.90;81.50;;;;;;5084371;28;20093;-68
2022/05/18 04:58:43;;;;;;;10.32;6.70;;;24.10;81.60;;;;;;5077065;28;20040;-67
2022/05/18 05:01:10;;;;;;;8.88;6.47;;;24.30;81.60;;;;;;5092254;28;20120;-67
2022/05/18 05:03:36;;;;;;;9.40;6.20;;;24.20;81.50;;;;;;5093464;28;20046;-67
2022/05/18 05:06:02;;;;;;;8.57;5.47;;;24.40;81.20;;;;;;5108554;28;20044;-67
2022/05/18 05:08:28;;;;;;;8.32;6.03;;;24.30;81.00;;;;;;5078488;28;20040;-67
2022/05/18 05:10:54;;;;;;;7.97;5.93;;;24.80;80.50;;;;;;5091688;28;20047;-64
2022/05/18 05:13:19;;;;;;;8.70;5.88;;;24.90;80.30;;;;;;5105354;28;20035;-65
2022/05/18 05:15:46;;;;;;;7.55;5.45;;;25.10;80.00;;;;;;5095288;28;20495;-65
2022/05/18 05:18:12;;;;;;;7.00;4.85;;;25.10;80.00;;;;;;5105549;27;20474;-67
2022/05/18 05:20:38;;;;;;;7.75;5.07;;;25.30;79.60;;;;;;5111518;28;20043;-67
2022/05/18 05:23:04;;;;;;;8.05;4.93;;;25.10;79.30;;;;;;5117176;28;20498;-67
2022/05/18 05:25:30;;;;;;;8.52;5.30;;;25.50;78.80;;;;;;5098084;28;20189;-67
2022/05/18 05:27:55;;;;;;;7.03;4.90;;;25.40;78.90;;;;;;5097711;28;20443;-67
2022/05/18 05:30:21;;;;;;;6.50;4.68;;;25.90;79.10;;;;;;5105586;27;20131;-67
2022/05/18 05:32:47;;;;;;;6.75;4.80;;;25.70;78.10;;;;;;5087701;28;20086;-67
2022/05/18 05:35:13;;;;;;;6.88;4.53;;;25.80;78.40;;;;;;5078485;28;20071;-67
2022/05/18 05:37:39;;;;;;;8.13;4.82;;;26.00;78.10;;;;;;5112578;28;20040;-67
2022/05/18 05:40:06;;;;;;;6.10;4.30;;;25.90;78.00;;;;;;5080223;28;20036;-67
2022/05/18 05:42:32;;;;;;;7.53;4.68;;;25.90;77.90;;;;;;5095721;28;20047;-66
2022/05/18 05:44:58;;;;;;;8.15;4.82;;;26.30;77.90;;;;;;5114636;28;20055;-68
2022/05/18 05:47:23;;;;;;;7.22;4.50;;;25.90;77.40;;;;;;5121293;27;20497;-67
2022/05/18 05:49:49;;;;;;;7.13;4.68;;;26.20;77.70;;;;;;5101868;28;20105;-67
2022/05/18 05:52:15;;;;;;;6.00;4.30;;;26.20;77.40;;;;;;5068697;28;20048;-67
2022/05/18 05:54:41;;;;;;;6.45;4.30;;;26.40;77.60;;;;;;5114505;28;20039;-67
2022/05/18 05:57:07;;;;;;;7.63;4.70;;;26.30;77.30;;;;;;5081472;28;20130;-67
2022/05/18 05:59:33;;;;;;;6.53;4.28;;;26.10;76.90;;;;;;5094686;28;20077;-67
2022/05/18 06:02:03;;;;;;;6.72;4.30;;;26.70;77.80;;;;;;5096155;28;20047;-67
2022/05/18 06:04:32;;;;;;;8.68;4.68;;;26.50;77.50;;;;;;5089888;28;20048;-67
2022/05/18 06:06:58;;;;;;;6.60;4.68;;;26.40;77.10;;;;;;5065159;28;20035;-67
2022/05/18 06:09:24;;;;;;;6.40;4.40;;;26.50;76.90;;;;;;5046666;28;20055;-67
2022/05/18 06:11:50;;;;;;;9.98;5.07;;;26.50;76.40;;;;;;5090559;28;20134;-67
2022/05/18 06:14:17;;;;;;;6.63;4.70;;;26.80;76.80;;;;;;5097370;28;20436;-67
2022/05/18 06:16:42;;;;;;;6.95;4.40;;;26.80;76.50;;;;;;5097160;28;20055;-67
2022/05/18 06:19:08;;;;;;;8.68;4.85;;;26.70;76.50;;;;;;5130687;27;20097;-68
2022/05/18 06:21:34;;;;;;;9.23;5.55;;;26.90;76.40;;;;;;5085988;28;20079;-66
2022/05/18 06:24:00;;;;;;;8.15;5.43;;;26.80;76.40;;;;;;5108473;28;20097;-67
2022/05/18 06:26:26;;;;;;;9.88;6.07;;;27.00;76.40;;;;;;5079303;28;20044;-68
2022/05/18 06:28:52;;;;;;;8.70;6.25;;;26.70;76.30;;;;;;5094195;28;20453;-68
2022/05/18 06:31:18;;;;;;;10.20;6.32;;;26.70;76.60;;;;;;5110868;28;20099;-68
2022/05/18 06:33:44;;;;;;;9.18;6.65;;;26.70;76.30;;;;;;5111109;28;20082;-66
2022/05/18 06:36:10;;;;;;;9.65;6.85;;;26.60;76.70;;;;;;5121157;27;20048;-69
2022/05/18 06:38:36;;;;;;;10.15;7.10;;;26.50;76.70;;;;;;5097345;28;20598;-69
2022/05/18 06:43:46;;;;;;;8.85;6.75;;;26.30;76.00;;;;;;5107926;28;20053;-69
2022/05/18 06:46:11;;;;;;;9.38;6.75;;;26.20;76.80;;;;;;5090068;28;20040;-69
2022/05/18 06:48:40;;;;;;;9.18;7.15;;;26.50;77.40;;;;;;5060377;28;20064;-69
2022/05/18 06:51:06;;;;;;;12.30;7.43;;;26.50;77.30;;;;;;5088622;28;20058;-69
2022/05/18 06:53:32;;;;;;;11.38;7.53;;;26.20;77.40;;;;;;5092754;28;20040;-69
2022/05/18 06:55:58;;;;;;;12.70;7.10;;;26.40;77.60;;;;;;5091626;28;20077;-68
2022/05/18 06:58:24;;;;;;;11.07;7.50;;;26.30;77.60;;;;;;5080183;28;20054;-69
2022/05/18 07:00:49;;;;;;;13.25;7.80;;;26.40;77.80;;;;;;5095675;28;20051;-66
2022/05/18 07:03:16;;;;;;;11.43;7.43;;;26.40;77.70;;;;;;5114042;28;20385;-66
2022/05/18 07:05:42;;;;;;;10.50;7.25;;;26.60;77.80;;;;;;5104157;28;20189;-65
2022/05/18 07:08:08;;;;;;;10.50;7.40;;;26.30;77.70;;;;;;5096514;28;20153;-69
2022/05/18 07:10:34;;;;;;;9.63;7.38;;;26.30;77.40;;;;;;5114226;28;20071;-69
2022/05/18 07:12:59;;;;;;;11.32;7.85;;;26.50;77.60;;;;;;5098795;28;20401;-69
2022/05/18 07:15:25;;;;;;;11.02;7.25;;;26.30;77.90;;;;;;5099242;28;20036;-69
2022/05/18 07:17:51;;;;;;;10.43;7.40;;;26.50;77.90;;;;;;5129268;27;20043;-69
2022/05/18 07:20:17;;;;;;;11.68;7.45;;;26.30;77.90;;;;;;5130386;27;20051;-69
2022/05/18 07:22:43;;;;;;;8.27;7.00;;;26.60;78.10;;;;;;5089069;28;20048;-69
2022/05/18 07:25:09;;;;;;;11.82;7.35;;;26.70;78.40;;;;;;5107761;27;20095;-69
2022/05/18 07:27:34;;;;;;;9.75;7.45;;;26.70;77.90;;;;;;5060381;28;20134;-69
2022/05/18 07:30:02;;;;;;;13.25;7.82;;;26.30;77.90;;;;;;5058323;28;20146;-66
2022/05/18 07:32:29;;;;;;;9.63;7.13;;;26.40;77.70;;;;;;5055548;28;20127;-69
2022/05/18 07:34:54;;;;;;;10.25;7.30;;;26.60;78.10;;;;;;5083412;28;20039;-69
2022/05/18 07:37:20;;;;;;;10.93;8.00;;;26.70;78.20;;;;;;5087481;28;20081;-68
2022/05/18 07:39:46;;;;;;;12.98;7.47;;;26.70;78.20;;;;;;5093268;28;20083;-69
2022/05/18 07:42:12;;;;;;;9.80;7.65;;;26.70;77.80;;;;;;5130101;27;20434;-69
2022/05/18 07:44:38;;;;;;;13.90;7.80;;;26.60;78.40;;;;;;5108971;28;20392;-69
2022/05/18 07:47:06;;;;;;;12.45;8.00;;;26.70;77.60;;;;;;5102854;27;20047;-68
2022/05/18 07:49:40;;;;;;;13.20;7.90;;;26.70;77.60;;;;;;5125362;27;20043;-69
2022/05/18 07:52:06;;;;;;;12.20;7.72;;;27.00;78.20;;;;;;5075341;28;20064;-69
2022/05/18 07:54:32;;;;;;;15.00;7.80;;;26.70;77.10;;;;;;5060651;28;20123;-69
2022/05/18 07:56:58;;;;;;;10.50;7.60;;;27.00;77.60;;;;;;5099851;28;20051;-69
2022/05/18 07:59:24;;;;;;;13.02;8.35;;;27.00;77.50;;;;;;5059398;28;20040;-69
2022/05/18 08:01:50;;;;;;;11.15;7.45;;;26.90;77.10;;;;;;5093240;28;20097;-70
2022/05/18 08:04:16;;;;;;;17.98;7.32;;;27.10;77.50;;;;;;5111537;28;20039;-69
2022/05/18 08:06:42;;;;;;;13.10;6.95;;;27.00;77.00;;;;;;5088543;28;20048;-69
2022/05/18 08:09:08;;;;;;;11.20;6.80;;;27.10;77.10;;;;;;5094410;28;20047;-66
2022/05/18 08:17:02;;;;;;;10.23;6.70;;;27.70;76.10;;;;;;5099591;28;20039;-68
2022/05/18 08:19:29;;;;;;;9.88;6.80;;;27.40;76.50;;;;;;5109661;28;20036;-66
2022/05/18 08:21:55;;;;;;;8.77;6.53;;;27.50;76.60;;;;;;5127827;27;20059;-65
2022/05/18 08:24:21;;;;;;;8.75;7.20;;;27.60;76.70;;;;;;5113400;28;20496;-66
2022/05/18 08:26:47;;;;;;;13.40;6.78;;;27.60;76.30;;;;;;5129099;27;20112;-68
2022/05/18 08:29:13;;;;;;;8.10;6.20;;;27.70;76.60;;;;;;5096601;28;20044;-69
2022/05/18 08:31:38;;;;;;;9.73;6.50;;;27.80;76.30;;;;;;5093565;28;20051;-68
2022/05/18 08:34:04;;;;;;;9.70;5.90;;;27.80;76.30;;;;;;5078163;28;20132;-68
2022/05/18 08:36:31;;;;;;;9.32;6.28;;;27.70;76.10;;;;;;5078275;28;20043;-69
2022/05/18 08:38:57;;;;;;;8.23;5.80;;;27.50;76.30;;;;;;5101017;28;20051;-68
2022/05/18 08:41:30;;;;;;;9.02;5.85;;;27.90;76.20;;;;;;5075385;28;20373;-68
2022/05/18 08:43:58;;;;;;;10.07;5.82;;;27.60;76.50;;;;;;5109980;28;20451;-68
2022/05/18 08:46:45;;;;;;;15.68;6.20;;;27.80;76.40;;;;;;5103205;28;20757;-67
2022/05/18 08:49:12;;;;;;;11.13;6.00;;;27.70;77.00;;;;;;5094210;28;20055;-67
2022/05/18 08:51:45;;;;;;;11.98;5.88;;;27.80;76.00;;;;;;5087306;28;20531;-67
2022/05/18 08:54:33;;;;;;;13.30;6.72;;;28.20;75.00;;;;;;5072703;28;20409;-67
2022/05/18 08:56:59;;;;;;;14.18;5.63;;;28.00;74.90;;;;;;5062580;28;20087;-67
2022/05/18 08:59:40;;;;;;;8.95;5.13;;;28.10;76.00;;;;;;5078462;28;20134;-66
2022/05/18 09:02:28;;;;;;;13.95;5.80;;;28.20;75.50;;;;;;5102962;28;20119;-64
2022/05/18 09:05:05;;;;;;;11.05;6.22;;;28.00;75.80;;;;;;5114895;28;20397;-66
2022/05/18 09:07:38;;;;;;;25.42;10.02;;;28.20;74.30;;;;;;5115876;28;20055;-67
2022/05/18 09:10:12;;;;;;;;;;;28.00;75.70;;;;;;5132710;27;20565;-67
2022/05/18 09:12:42;;;;;;;43.78;13.68;;;28.00;75.70;;;;;;5084642;28;19946;-67
2022/05/18 09:15:09;;;;;;;48.67;12.70;;;28.40;75.80;;;;;;5112590;28;20048;-66
2022/05/18 09:17:41;;;;;;;39.15;13.57;;;28.00;75.10;;;;;;5061936;28;20039;-67
2022/05/18 09:20:26;;;;;;;38.95;10.23;;;28.10;75.50;;;;;;5077890;28;20052;-67
2022/05/18 09:23:28;;;;;;;35.38;10.73;;;28.30;74.00;;;;;;5111550;28;20052;-67
2022/05/18 09:25:57;;;;;;;;;;;28.10;74.20;;;;;;5101280;28;20075;-67
2022/05/18 09:28:38;;;;;;;29.48;10.18;;;27.80;73.90;;;;;;5078519;28;19920;-66
2022/05/18 09:31:14;;;;;;;31.55;10.30;;;28.30;74.30;;;;;;5061110;28;20135;-67
2022/05/18 09:34:02;;;;;;;28.17;9.98;;;28.20;75.30;;;;;;5078811;28;20126;-66
2022/05/18 09:37:10;;;;;;;26.25;9.60;;;28.10;74.10;;;;;;5080296;28;20393;-66
2022/05/18 09:39:39;;;;;;;21.08;8.35;;;28.20;74.10;;;;;;5063502;28;20493;-66
2022/05/18 09:42:08;;;;;;;23.20;8.93;;;28.30;75.50;;;;;;5095067;28;20186;-67
2022/05/18 09:44:51;;;;;;;26.10;9.57;;;28.20;75.40;;;;;;5067007;28;20130;-67
2022/05/18 09:47:18;;;;;;;24.15;8.73;;;28.20;74.10;;;;;;5101864;28;20078;-67
2022/05/18 09:49:45;;;;;;;19.30;7.85;;;28.30;75.60;;;;;;5115052;27;20425;-67
2022/05/18 09:52:11;;;;;;;18.00;7.70;;;28.20;75.30;;;;;;5084621;28;20516;-66
2022/05/18 09:54:37;;;;;;;22.10;7.45;;;28.30;75.30;;;;;;5077500;28;20040;-66
2022/05/18 09:58:00;;;;;;;16.05;7.25;;;28.00;74.80;;;;;;5094729;28;20111;-66
2022/05/18 10:00:27;;;;;;;15.07;6.88;;;28.30;74.00;;;;;;5016777;28;20099;-66
2022/05/18 10:08:23;;;;;;;14.73;6.28;;;28.20;75.20;;;;;;5026443;28;20110;-67
2022/05/18 10:10:58;;;;;;;16.65;6.30;;;28.20;75.20;;;;;;5030296;28;20430;-67
2022/05/18 10:13:26;;;;;;;14.43;6.57;;;28.30;75.20;;;;;;4998767;28;20049;-67
2022/05/18 10:16:13;;;;;;;19.38;6.43;;;28.40;75.30;;;;;;4999682;28;20111;-67
2022/05/18 10:18:45;;;;;;;14.57;6.15;;;28.20;73.90;;;;;;5011429;28;20149;-69
2022/05/18 10:21:17;;;;;;;14.38;6.65;;;28.50;73.90;;;;;;5024143;28;20511;-66
2022/05/18 10:23:52;;;;;;;15.43;5.75;;;28.30;73.90;;;;;;5032305;28;20049;-66
2022/05/18 10:26:41;;;;;;;14.40;5.63;;;28.10;75.00;;;;;;5031519;28;20053;-67
2022/05/18 10:29:14;;;;;;;10.93;5.28;;;28.30;74.10;;;;;;5000861;28;20438;-66
2022/05/18 10:31:46;;;;;;;15.98;5.60;;;28.20;73.70;;;;;;5081751;28;20044;-66
2022/05/18 10:34:16;;;;;;;;;;;28.10;75.40;;;;;;5111407;28;20504;-66
2022/05/18 10:36:48;;;;;;;11.18;5.55;;;28.20;74.70;;;;;;5102022;28;20402;-66
2022/05/18 10:39:38;;;;;;;13.27;5.28;;;28.30;73.90;;;;;;5077379;28;20055;-66
2022/05/18 10:42:08;;;;;;;12.52;5.20;;;27.20;73.40;;;;;;5120934;27;20093;-66
2022/05/18 10:44:34;;;;;;;10.18;4.60;;;28.20;75.10;;;;;;5076915;28;20059;-66
2022/05/18 10:47:35;;;;;;;11.00;4.97;;;28.10;75.10;;;;;;5076863;28;20048;-66
2022/05/18 10:50:24;;;;;;;9.68;5.05;;;28.30;74.30;;;;;;5076603;28;20052;-65
2022/05/18 10:52:51;;;;;;;8.85;4.15;;;28.20;74.50;;;;;;5097744;28;20059;-64
2022/05/18 10:55:19;;;;;;;9.82;4.78;;;28.20;75.50;;;;;;5096678;28;20045;-65
2022/05/18 10:58:00;;;;;;;11.52;4.72;;;28.30;75.40;;;;;;5091981;28;20464;-66
2022/05/18 11:00:48;;;;;;;12.70;5.72;;;28.40;75.80;;;;;;5094566;28;20102;-65
2022/05/18 11:03:25;;;;;;;10.75;4.75;;;28.60;74.60;;;;;;5065414;28;20374;-66
2022/05/18 11:05:52;;;;;;;15.02;4.72;;;28.00;73.80;;;;;;5111352;28;20496;-66
2022/05/18 11:08:21;;;;;;;8.95;4.80;;;28.20;75.20;;;;;;5111548;28;20115;-65
2022/05/18 11:11:11;;;;;;;9.80;5.15;;;28.30;75.40;;;;;;5098878;28;20048;-66
2022/05/18 11:13:54;;;;;;;9.35;4.78;;;28.50;74.00;;;;;;5096155;28;20542;-66
2022/05/18 11:16:26;;;;;;;10.52;4.53;;;28.20;73.80;;;;;;5093642;28;20058;-64
2022/05/18 11:18:58;;;;;;;9.73;4.63;;;28.20;75.30;;;;;;5096234;28;20839;-66
2022/05/18 11:21:49;;;;;;;10.95;4.90;;;28.30;75.40;;;;;;5113274;28;20120;-66
2022/05/18 11:24:23;;;;;;;8.35;4.60;;;28.30;74.00;;;;;;5078131;28;20155;-69
2022/05/18 11:27:04;;;;;;;7.60;4.57;;;28.40;73.70;;;;;;5062976;28;20040;-68
2022/05/18 11:29:48;;;;;;;7.57;4.18;;;28.30;73.90;;;;;;5096075;28;20298;-68
2022/05/18 11:32:20;;;;;;;11.88;4.18;;;28.40;74.90;;;;;;5113419;28;20066;-68
2022/05/18 11:35:04;;;;;;;9.40;4.30;;;28.40;73.60;;;;;;5058459;28;20048;-69
2022/05/18 11:37:52;;;;;;;11.30;4.00;;;28.60;75.20;;;;;;5076214;28;20298;-68
2022/05/18 11:40:37;;;;;;;10.15;4.32;;;28.60;74.00;;;;;;5129702;27;20051;-69
2022/05/18 11:43:33;;;;;;;14.05;4.60;;;28.40;73.50;;;;;;5094728;28;20100;-69
2022/05/18 11:46:07;;;;;;;7.70;4.30;;;28.30;73.50;;;;;;5078633;28;20071;-69
2022/05/18 11:48:45;;;;;;;7.57;4.07;;;28.30;75.30;;;;;;5093977;28;20133;-67
2022/05/18 11:51:29;;;;;;;8.50;4.18;;;28.60;75.30;;;;;;5076609;28;20047;-68
2022/05/18 11:54:22;;;;;;;12.63;4.43;;;28.50;75.40;;;;;;5121069;27;20053;-69
2022/05/18 11:57:24;;;;;;;7.07;4.18;;;28.40;75.50;;;;;;5048167;28;20134;-69
2022/05/18 12:00:16;;;;;;;7.50;4.07;;;28.50;73.90;;;;;;5071398;28;20126;-65
2022/05/18 12:03:08;;;;;;;8.32;5.05;;;28.30;73.80;;;;;;5058770;28;20392;-68
2022/05/18 12:06:16;;;;;;;10.30;4.30;;;28.50;74.00;;;;;;5074551;28;20455;-69
2022/05/18 12:08:47;;;;;;;7.30;4.30;;;28.50;74.30;;;;;;4997063;28;20554;-69
2022/05/18 12:11:32;;;;;;;7.70;4.90;;;28.40;73.70;;;;;;5010588;28;20053;-69
2022/05/18 12:14:03;;;;;;;9.23;4.63;;;28.60;75.40;;;;;;5040412;28;20089;-66
2022/05/18 12:17:06;;;;;;;9.88;4.75;;;28.70;75.30;;;;;;4995520;28;20045;-69
2022/05/18 12:19:40;;;;;;;12.13;4.80;;;28.60;74.10;;;;;;5013574;28;20056;-68
2022/05/18 12:22:19;;;;;;;7.82;4.47;;;28.60;73.80;;;;;;4996116;28;20601;-69
2022/05/18 12:24:46;;;;;;;6.65;4.03;;;28.50;73.70;;;;;;5014580;28;20042;-68
2022/05/18 12:27:12;;;;;;;9.27;4.25;;;28.60;75.10;;;;;;4995046;28;20057;-68
2022/05/18 12:29:38;;;;;;;8.43;4.40;;;28.20;74.80;;;;;;4978267;28;20038;-68
2022/05/18 12:32:04;;;;;;;9.38;4.80;;;28.50;74.70;;;;;;5001096;28;20092;-68
2022/05/18 12:34:36;;;;;;;6.65;3.72;;;28.50;74.40;;;;;;5010322;28;20054;-69
2022/05/18 12:37:25;;;;;;;7.13;4.07;;;28.70;75.10;;;;;;4994441;28;20100;-69
2022/05/18 12:40:31;;;;;;;7.95;4.10;;;28.60;73.90;;;;;;5010907;28;20456;-68
2022/05/18 12:43:00;;;;;;;8.07;4.50;;;28.70;74.00;;;;;;4904872;29;20067;-68
2022/05/18 12:45:26;;;;;;;7.82;4.25;;;28.70;75.30;;;;;;4924423;28;20046;-69
2022/05/18 12:48:02;;;;;;;6.28;3.80;;;28.50;75.40;;;;;;4990558;28;20530;-67
2022/05/18 12:50:35;;;;;;;8.88;3.80;;;28.30;75.10;;;;;;4956516;28;20065;-69
2022/05/18 12:53:02;;;;;;;8.02;4.03;;;28.50;73.80;;;;;;4957557;28;20042;-69
2022/05/18 12:55:39;;;;;;;8.25;3.80;;;28.50;75.10;;;;;;4955954;28;20047;-69
2022/05/18 12:58:23;;;;;;;7.57;4.05;;;28.50;74.90;;;;;;4939755;28;20061;-69
2022/05/18 13:01:15;;;;;;;8.15;4.15;;;28.60;75.50;;;;;;4972965;28;20108;-69
2022/05/18 13:03:49;;;;;;;5.80;3.90;;;28.40;74.00;;;;;;4974385;28;20407;-69
2022/05/18 13:06:29;;;;;;;13.00;4.45;;;28.80;74.20;;;;;;4972977;28;20071;-68
2022/05/18 13:08:58;;;;;;;7.18;4.28;;;28.40;73.80;;;;;;4972509;28;20051;-68
2022/05/18 13:11:31;;;;;;;7.95;4.68;;;28.40;75.00;;;;;;4983857;28;20158;-66
2022/05/18 13:14:06;;;;;;;11.32;6.15;;;28.20;73.60;;;;;;4978473;28;20051;-68